Aérodrome :
LOGIN :

S'inscrire | Disclaimer

   EN    FR    IT 

 










Légende :    VFR   VFR Marginal   IFR   IFR Intensif   IFR Très Intensif
Visi : 
Plafond : 
>= 8 km
>= 3000ft
5 à 8 km
1000 à 3000 ft
1500m à 5 km
500 à 1000 ft
800 à 1500m
200 à 500 ft
< 800m
< 200 ft
Symboles :   Orages  Brouillard  Fortes neiges  Fortes précipitations  Vent > 20 kt
SIGMETs :   Divers  Orages  Givrage  Turbulence  Onde Orograph.  Cendres Volcan.







- Altitude de l'aérodrome : 106 ft
- Code IATA : XDA
- Voir les cartes d'approche


LFBY - Dax Seyresse

DERNIER METAR :
  • 211630Z AUTO 28007KT 230V330 3600 // FEW008 BKN013 OVC020 13/12 Q1027

METARs EXPIRÉS :
  • 211600Z AUTO 28008KT 250V320 1800 // BKN011 OVC019 13/12 Q1027
  • 211530Z AUTO 28008KT 250V310 5000 // BKN012 BKN019 OVC029 13/12 Q1027
  • 211500Z AUTO 28012KT 260V320 9999 // FEW012 BKN017 BKN025 13/12 Q1027
  • 211430Z AUTO 28010KT 230V330 1400 1000 // BKN008 OVC012 13/12 Q1027
  • 211400Z AUTO 28010KT 250V310 1100 // BKN009 BKN013 OVC023 13/12 Q1027

Prévision TAF périmée.
Pas de NOTAMs connus pour ce terrain.
3 SIGMETs publiés pour la FIR Bordeaux (LFBB) :
 
Annulation du SIGMET 3 
LFBB SIGMET 5 VALID 211600/211800 LFPW
LFBB BORDEAUX FIR/UIR CNL SIGMET 3 211400/211800=
Turbulence forte
LFBB SIGMET 4 VALID 211600/212000 LFPW
LFBB BORDEAUX FIR/UIR SEV TURB FCST SE OF LINE N4515 E00245 - N4230 E00130 SFC/FL150 STNR NC=
SIGMET 3  ANNULÉ :
Turbulence forte
LFBB SIGMET 3 VALID 211400/211800 LFPW
LFBB BORDEAUX FIR/UIR SEV TURB FCST SE OF LINE N4230 E00115 - N4430 E00245 SFC/FL150 STNR INTSF=



MET'MAP, la Météo Aéronautique d'un coup d'oeil ! - Copyright ORBIFLY Décembre 2007 - Disclaimer

ORBIFLY MET'MAP TEAM :

Programmation & Développement : Alexandra Zaïnal
Conception & Développement : Baudouin d'Aumeries
Co-Programmation & Développement : Marc-Olivier Méhu
Soutien technique & logistique : Manuel Goepfert

Contact : metmap@orbifly.com




SOURCES & CREDITS :

   NOAA